Time,TemperatureF,DewpointF,PressureIn,WindDirection,WindDirectionDegrees,WindSpeedMPH,WindSpeedGustMPH,Humidity,HourlyPrecipIn,Conditions,Clouds,dailyrainin,SoftwareType,DateUTC
2013-02-12 00:01:00,52.0,46.7,29.76,NW,306,3.0,7.0,82,0.00,,,0.00,WUHU216DAVISVP2,2013-02-12 05:01:00,
2013-02-12 00:06:00,51.9,45.3,29.77,NW,310,4.0,7.0,78,0.00,,,0.00,WUHU216DAVISVP2,2013-02-12 05:06:00,
2013-02-12 00:11:00,51.9,44.2,29.77,NW,322,0.0,7.0,75,0.00,,,0.00,WUHU216DAVISVP2,2013-02-12 05:11:00,
2013-02-12 00:16:00,51.7,43.3,29.78,WNW,292,0.0,7.0,73,0.00,,,0.00,WUHU216DAVISVP2,2013-02-12 05:16:00,
2013-02-12 00:21:00,51.4,42.7,29.78,WNW,297,0.0,7.0,72,0.00,,,0.00,WUHU216DAVISVP2,2013-02-12 05:21:00,
2013-02-12 00:26:00,51.3,42.2,29.78,WNW,300,3.0,7.0,71,0.00,,,0.00,WUHU216DAVISVP2,2013-02-12 05:26:00,
2013-02-12 00:31:00,51.1,41.3,29.78,WNW,289,1.0,4.0,69,0.00,,,0.00,WUHU216DAVISVP2,2013-02-12 05:31:00,
2013-02-12 00:36:00,50.9,40.7,29.79,NW,305,0.0,4.0,68,0.00,,,0.00,WUHU216DAVISVP2,2013-02-12 05:36:00,
2013-02-12 00:41:00,50.6,40.0,29.79,WNW,292,1.0,4.0,67,0.00,,,0.00,WUHU216DAVISVP2,2013-02-12 05:41:00,
2013-02-12 00:46:00,50.5,38.8,29.79,WNW,282,2.0,5.0,64,0.00,,,0.00,WUHU216DAVISVP2,2013-02-12 05:46:00,
2013-02-12 00:51:00,50.3,38.7,29.79,West,264,2.0,5.0,64,0.00,,,0.00,WUHU216DAVISVP2,2013-02-12 05:51:00,
2013-02-12 00:56:00,50.1,37.3,29.79,WSW,242,3.0,5.0,61,0.00,,,0.00,WUHU216DAVISVP2,2013-02-12 05:56:00,
2013-02-12 01:02:00,50.2,37.4,29.79,WNW,290,0.0,5.0,61,0.00,,,0.00,WUHU216DAVISVP2,2013-02-12 06:02:00,
2013-02-12 01:07:00,50.1,36.8,29.79,West,270,1.0,5.0,60,0.00,,,0.00,WUHU216DAVISVP2,2013-02-12 06:07:00,
2013-02-12 01:12:00,49.9,36.7,29.80,NW,316,0.0,5.0,60,0.00,,,0.00,WUHU216DAVISVP2,2013-02-12 06:12:00,
2013-02-12 01:17:00,49.7,36.5,29.80,NNW,343,0.0,5.0,60,0.00,,,0.00,WUHU216DAVISVP2,2013-02-12 06:17:00,
2013-02-12 01:22:00,49.5,36.3,29.80,NNW,333,0.0,4.0,60,0.00,,,0.00,WUHU216DAVISVP2,2013-02-12 06:22:00,
2013-02-12 01:27:00,49.4,36.6,29.80,NW,304,1.0,4.0,61,0.00,,,0.00,WUHU216DAVISVP2,2013-02-12 06:27:00,
2013-02-12 01:32:00,49.2,36.0,29.80,WNW,291,0.0,4.0,60,0.00,,,0.00,WUHU216DAVISVP2,2013-02-12 06:32:00,
2013-02-12 01:37:00,49.0,35.8,29.81,WSW,250,1.0,4.0,60,0.00,,,0.00,WUHU216DAVISVP2,2013-02-12 06:37:00,
2013-02-12 01:42:00,48.9,35.7,29.80,WNW,282,1.0,4.0,60,0.00,,,0.00,WUHU216DAVISVP2,2013-02-12 06:42:00,
2013-02-12 01:47:00,48.7,35.9,29.81,West,272,0.0,4.0,61,0.00,,,0.00,WUHU216DAVISVP2,2013-02-12 06:47:00,
2013-02-12 01:52:00,48.5,35.8,29.81,West,259,0.0,3.0,61,0.00,,,0.00,WUHU216DAVISVP2,2013-02-12 06:52:00,
2013-02-12 01:57:00,48.3,35.6,29.82,SSW,210,0.0,3.0,61,0.00,,,0.00,WUHU216DAVISVP2,2013-02-12 06:57:00,
2013-02-12 02:03:00,48.1,35.7,29.81,SSW,210,0.0,3.0,62,0.00,,,0.00,WUHU216DAVISVP2,2013-02-12 07:03:00,
2013-02-12 02:08:00,47.8,35.4,29.82,SSW,208,0.0,3.0,62,0.00,,,0.00,WUHU216DAVISVP2,2013-02-12 07:08:00,
2013-02-12 02:13:00,47.5,35.1,29.83,SW,222,1.0,3.0,62,0.00,,,0.00,WUHU216DAVISVP2,2013-02-12 07:13:00,
2013-02-12 02:18:00,47.3,35.3,29.82,SW,222,1.0,3.0,63,0.00,,,0.00,WUHU216DAVISVP2,2013-02-12 07:18:00,
2013-02-12 02:24:00,47.2,34.8,29.82,WSW,237,3.0,4.0,62,0.00,,,0.00,WUHU216DAVISVP2,2013-02-12 07:24:00,
2013-02-12 02:29:00,47.3,34.9,29.82,WSW,253,2.0,4.0,62,0.00,,,0.00,WUHU216DAVISVP2,2013-02-12 07:29:00,
2013-02-12 02:34:00,47.4,34.7,29.83,WSW,253,0.0,4.0,61,0.00,,,0.00,WUHU216DAVISVP2,2013-02-12 07:34:00,
2013-02-12 02:39:00,47.4,34.7,29.82,SW,229,2.0,5.0,61,0.00,,,0.00,WUHU216DAVISVP2,2013-02-12 07:39:00,
2013-02-12 02:45:00,47.3,34.6,29.82,SW,217,2.0,5.0,61,0.00,,,0.00,WUHU216DAVISVP2,2013-02-12 07:45:00,
2013-02-12 02:50:00,47.3,34.6,29.82,SSW,208,0.0,5.0,61,0.00,,,0.00,WUHU216DAVISVP2,2013-02-12 07:50:00,
2013-02-12 02:55:00,47.2,34.5,29.82,West,268,1.0,4.0,61,0.00,,,0.00,WUHU216DAVISVP2,2013-02-12 07:55:00,
2013-02-12 03:00:00,47.1,34.0,29.82,SW,222,1.0,4.0,60,0.00,,,0.00,WUHU216DAVISVP2,2013-02-12 08:00:00,
2013-02-12 03:05:00,47.1,34.0,29.82,SW,229,1.0,5.0,60,0.00,,,0.00,WUHU216DAVISVP2,2013-02-12 08:05:00,
2013-02-12 03:10:00,47.2,33.7,29.82,SW,220,2.0,6.0,59,0.00,,,0.00,WUHU216DAVISVP2,2013-02-12 08:10:00,
2013-02-12 03:15:00,47.2,34.0,29.82,SW,235,1.0,8.0,60,0.00,,,0.00,WUHU216DAVISVP2,2013-02-12 08:15:00,
2013-02-12 03:20:00,47.1,33.5,29.82,West,265,1.0,8.0,59,0.00,,,0.00,WUHU216DAVISVP2,2013-02-12 08:20:00,
2013-02-12 03:26:00,47.1,33.5,29.82,WSW,245,3.0,8.0,59,0.00,,,0.00,WUHU216DAVISVP2,2013-02-12 08:26:00,
2013-02-12 03:31:00,47.0,33.0,29.82,SW,229,7.0,8.0,58,0.00,,,0.00,WUHU216DAVISVP2,2013-02-12 08:31:00,
2013-02-12 03:36:00,47.1,33.1,29.82,SW,234,3.0,7.0,58,0.00,,,0.00,WUHU216DAVISVP2,2013-02-12 08:36:00,
2013-02-12 03:41:00,47.3,32.9,29.81,SW,235,2.0,9.0,57,0.00,,,0.00,WUHU216DAVISVP2,2013-02-12 08:41:00,
2013-02-12 03:46:00,47.4,32.5,29.81,WSW,251,3.0,9.0,56,0.00,,,0.00,WUHU216DAVISVP2,2013-02-12 08:46:00,
2013-02-12 03:51:00,47.4,32.5,29.82,WSW,237,5.0,9.0,56,0.00,,,0.00,WUHU216DAVISVP2,2013-02-12 08:51:00,
2013-02-12 03:56:00,47.3,32.0,29.82,WSW,243,1.0,9.0,55,0.00,,,0.00,WUHU216DAVISVP2,2013-02-12 08:56:00,
2013-02-12 04:01:00,47.3,32.0,29.82,SW,231,3.0,7.0,55,0.00,,,0.00,WUHU216DAVISVP2,2013-02-12 09:01:00,
2013-02-12 04:06:00,47.2,31.4,29.82,WSW,249,2.0,6.0,54,0.00,,,0.00,WUHU216DAVISVP2,2013-02-12 09:06:00,
2013-02-12 04:11:00,47.3,31.5,29.83,SW,231,3.0,7.0,54,0.00,,,0.00,WUHU216DAVISVP2,2013-02-12 09:11:00,
2013-02-12 04:16:00,47.4,31.6,29.83,WSW,250,4.0,7.0,54,0.00,,,0.00,WUHU216DAVISVP2,2013-02-12 09:16:00,
2013-02-12 04:21:00,47.2,31.4,29.83,WSW,253,2.0,7.0,54,0.00,,,0.00,WUHU216DAVISVP2,2013-02-12 09:21:00,
2013-02-12 04:26:00,47.0,31.7,29.82,NW,321,0.0,7.0,55,0.00,,,0.00,WUHU216DAVISVP2,2013-02-12 09:26:00,
2013-02-12 04:31:00,46.8,31.9,29.83,NW,310,1.0,6.0,56,0.00,,,0.00,WUHU216DAVISVP2,2013-02-12 09:31:00,
2013-02-12 04:36:00,46.8,31.9,29.84,WSW,258,0.0,7.0,56,0.00,,,0.00,WUHU216DAVISVP2,2013-02-12 09:36:00,
2013-02-12 04:41:00,46.5,31.7,29.84,West,266,1.0,7.0,56,0.00,,,0.00,WUHU216DAVISVP2,2013-02-12 09:41:00,
2013-02-12 04:46:00,46.4,31.6,29.84,WNW,285,1.0,7.0,56,0.00,,,0.00,WUHU216DAVISVP2,2013-02-12 09:46:00,
2013-02-12 04:51:00,46.4,31.6,29.84,West,264,2.0,4.0,56,0.00,,,0.00,WUHU216DAVISVP2,2013-02-12 09:51:00,
2013-02-12 04:56:00,46.5,32.1,29.84,NW,323,2.0,6.0,57,0.00,,,0.00,WUHU216DAVISVP2,2013-02-12 09:56:00,
2013-02-12 05:01:00,46.3,31.9,29.85,WSW,237,5.0,7.0,57,0.00,,,0.00,WUHU216DAVISVP2,2013-02-12 10:01:00,
2013-02-12 05:06:00,46.4,32.5,29.85,NW,317,4.0,7.0,58,0.00,,,0.00,WUHU216DAVISVP2,2013-02-12 10:06:00,
2013-02-12 05:11:00,46.8,31.9,29.85,West,260,0.0,12.0,56,0.00,,,0.00,WUHU216DAVISVP2,2013-02-12 10:11:00,
2013-02-12 05:16:00,46.9,32.1,29.84,West,263,3.0,12.0,56,0.00,,,0.00,WUHU216DAVISVP2,2013-02-12 10:16:00,
2013-02-12 05:21:00,47.1,31.7,29.85,WSW,241,5.0,12.0,55,0.00,,,0.00,WUHU216DAVISVP2,2013-02-12 10:21:00,
2013-02-12 05:26:00,47.1,31.8,29.85,WNW,292,3.0,11.0,55,0.00,,,0.00,WUHU216DAVISVP2,2013-02-12 10:26:00,
2013-02-12 05:31:00,46.9,32.1,29.86,NW,304,1.0,11.0,56,0.00,,,0.00,WUHU216DAVISVP2,2013-02-12 10:31:00,
2013-02-12 05:36:00,46.7,31.9,29.86,West,270,5.0,11.0,56,0.00,,,0.00,WUHU216DAVISVP2,2013-02-12 10:36:00,
2013-02-12 05:41:00,46.6,31.8,29.85,West,269,4.0,11.0,56,0.00,,,0.00,WUHU216DAVISVP2,2013-02-12 10:41:00,
2013-02-12 05:47:00,46.7,31.4,29.85,NNW,334,3.0,11.0,55,0.00,,,0.00,WUHU216DAVISVP2,2013-02-12 10:47:00,
2013-02-12 05:52:00,46.8,31.0,29.85,West,279,3.0,11.0,54,0.00,,,0.00,WUHU216DAVISVP2,2013-02-12 10:52:00,
2013-02-12 05:57:00,46.5,30.8,29.85,NW,316,3.0,11.0,54,0.00,,,0.00,WUHU216DAVISVP2,2013-02-12 10:57:00,
2013-02-12 06:02:00,46.5,30.8,29.85,WNW,295,4.0,10.0,54,0.00,,,0.00,WUHU216DAVISVP2,2013-02-12 11:02:00,
2013-02-12 06:08:00,46.5,30.8,29.86,WNW,297,2.0,10.0,54,0.00,,,0.00,WUHU216DAVISVP2,2013-02-12 11:08:00,
2013-02-12 06:13:00,46.3,31.0,29.86,WNW,287,2.0,8.0,55,0.00,,,0.00,WUHU216DAVISVP2,2013-02-12 11:13:00,
2013-02-12 06:18:00,46.2,30.5,29.87,WNW,302,4.0,11.0,54,0.00,,,0.00,WUHU216DAVISVP2,2013-02-12 11:18:00,
2013-02-12 06:23:00,46.2,30.5,29.87,West,266,3.0,11.0,54,0.00,,,0.00,WUHU216DAVISVP2,2013-02-12 11:23:00,
2013-02-12 06:28:00,46.3,30.1,29.87,WNW,283,6.0,11.0,53,0.00,,,0.00,WUHU216DAVISVP2,2013-02-12 11:28:00,
2013-02-12 06:33:00,46.5,30.3,29.88,WNW,288,4.0,11.0,53,0.00,,,0.00,WUHU216DAVISVP2,2013-02-12 11:33:00,
2013-02-12 06:39:00,46.8,29.6,29.88,SW,232,6.0,15.0,51,0.00,,,0.00,WUHU216DAVISVP2,2013-02-12 11:39:00,
2013-02-12 06:44:00,46.8,30.1,29.88,WSW,255,5.0,15.0,52,0.00,,,0.00,WUHU216DAVISVP2,2013-02-12 11:44:00,
2013-02-12 06:50:00,46.6,30.4,29.88,West,261,6.0,15.0,53,0.00,,,0.00,WUHU216DAVISVP2,2013-02-12 11:50:00,
2013-02-12 06:55:00,46.5,29.8,29.88,WNW,285,3.0,15.0,52,0.00,,,0.00,WUHU216DAVISVP2,2013-02-12 11:55:00,
2013-02-12 07:00:00,46.5,29.8,29.88,WNW,285,4.0,11.0,52,0.00,,,0.00,WUHU216DAVISVP2,2013-02-12 12:00:00,
2013-02-12 07:05:00,46.5,29.8,29.88,WNW,301,4.0,11.0,52,0.00,,,0.00,WUHU216DAVISVP2,2013-02-12 12:05:00,
2013-02-12 07:11:00,46.3,30.1,29.89,WNW,299,3.0,11.0,53,0.00,,,0.00,WUHU216DAVISVP2,2013-02-12 12:11:00,
2013-02-12 07:16:00,46.2,30.5,29.89,West,262,3.0,12.0,54,0.00,,,0.00,WUHU216DAVISVP2,2013-02-12 12:16:00,
2013-02-12 07:21:00,46.1,30.4,29.89,West,261,6.0,12.0,54,0.00,,,0.00,WUHU216DAVISVP2,2013-02-12 12:21:00,
2013-02-12 07:26:00,46.0,30.3,29.90,WSW,240,6.0,12.0,54,0.00,,,0.00,WUHU216DAVISVP2,2013-02-12 12:26:00,
2013-02-12 07:31:00,46.1,30.4,29.90,WSW,256,1.0,12.0,54,0.00,,,0.00,WUHU216DAVISVP2,2013-02-12 12:31:00,
2013-02-12 07:36:00,46.1,30.4,29.91,NW,310,3.0,9.0,54,0.00,,,0.00,WUHU216DAVISVP2,2013-02-12 12:36:00,
2013-02-12 07:42:00,46.1,30.4,29.91,NW,308,4.0,7.0,54,0.00,,,0.00,WUHU216DAVISVP2,2013-02-12 12:42:00,
2013-02-12 07:47:00,46.2,30.5,29.91,West,267,1.0,7.0,54,0.00,,,0.00,WUHU216DAVISVP2,2013-02-12 12:47:00,
2013-02-12 07:52:00,46.3,31.0,29.91,West,260,1.0,7.0,55,0.00,,,0.00,WUHU216DAVISVP2,2013-02-12 12:52:00,
2013-02-12 07:57:00,46.3,30.6,29.92,NW,312,1.0,7.0,54,0.00,,,0.00,WUHU216DAVISVP2,2013-02-12 12:57:00,
2013-02-12 08:03:00,46.4,30.7,29.92,NNW,337,2.0,8.0,54,0.00,,,0.00,WUHU216DAVISVP2,2013-02-12 13:03:00,
2013-02-12 08:08:00,46.4,30.7,29.92,North,354,0.0,8.0,54,0.00,,,0.00,WUHU216DAVISVP2,2013-02-12 13:08:00,
2013-02-12 08:13:00,46.3,31.0,29.92,WSW,258,0.0,8.0,55,0.00,,,0.00,WUHU216DAVISVP2,2013-02-12 13:13:00,
2013-02-12 08:18:00,46.3,31.0,29.92,WNW,301,1.0,6.0,55,0.00,,,0.00,WUHU216DAVISVP2,2013-02-12 13:18:00,
2013-02-12 08:23:00,46.4,30.7,29.92,WNW,283,1.0,5.0,54,0.00,,,0.00,WUHU216DAVISVP2,2013-02-12 13:23:00,
2013-02-12 08:28:00,46.5,31.2,29.92,WNW,284,1.0,5.0,55,0.00,,,0.00,WUHU216DAVISVP2,2013-02-12 13:28:00,
2013-02-12 08:33:00,46.5,30.3,29.92,West,261,1.0,5.0,53,0.00,,,0.00,WUHU216DAVISVP2,2013-02-12 13:33:00,
2013-02-12 08:38:00,46.5,30.3,29.93,WSW,243,2.0,5.0,53,0.00,,,0.00,WUHU216DAVISVP2,2013-02-12 13:38:00,
2013-02-12 08:43:00,46.5,30.8,29.93,WSW,244,2.0,4.0,54,0.00,,,0.00,WUHU216DAVISVP2,2013-02-12 13:43:00,
2013-02-12 08:48:00,46.5,31.2,29.93,NW,304,2.0,4.0,55,0.00,,,0.00,WUHU216DAVISVP2,2013-02-12 13:48:00,
2013-02-12 08:53:00,46.5,30.8,29.93,WNW,293,1.0,4.0,54,0.00,,,0.00,WUHU216DAVISVP2,2013-02-12 13:53:00,
2013-02-12 08:58:00,46.6,31.3,29.93,NNW,330,1.0,4.0,55,0.00,,,0.00,WUHU216DAVISVP2,2013-02-12 13:58:00,
2013-02-12 09:03:00,46.9,31.6,29.93,NW,306,0.0,4.0,55,0.00,,,0.00,WUHU216DAVISVP2,2013-02-12 14:03:00,
2013-02-12 09:08:00,47.3,32.4,29.93,West,277,0.0,4.0,56,0.00,,,0.00,WUHU216DAVISVP2,2013-02-12 14:08:00,
2013-02-12 09:13:00,47.8,31.0,29.93,WNW,295,6.0,7.0,52,0.00,,,0.00,WUHU216DAVISVP2,2013-02-12 14:13:00,
2013-02-12 09:18:00,48.1,31.8,29.93,West,281,4.0,7.0,53,0.00,,,0.00,WUHU216DAVISVP2,2013-02-12 14:18:00,
2013-02-12 09:23:00,48.4,31.1,29.93,WNW,287,5.0,7.0,51,0.00,,,0.00,WUHU216DAVISVP2,2013-02-12 14:23:00,
2013-02-12 09:28:00,48.5,31.7,29.93,WNW,282,2.0,7.0,52,0.00,,,0.00,WUHU216DAVISVP2,2013-02-12 14:28:00,
2013-02-12 09:34:00,48.8,30.9,29.93,NW,305,3.0,7.0,50,0.00,,,0.00,WUHU216DAVISVP2,2013-02-12 14:34:00,
2013-02-12 09:39:00,49.0,30.6,29.93,WSW,257,2.0,7.0,49,0.00,,,0.00,WUHU216DAVISVP2,2013-02-12 14:39:00,
2013-02-12 09:44:00,49.0,30.6,29.93,West,280,6.0,10.0,49,0.00,,,0.00,WUHU216DAVISVP2,2013-02-12 14:44:00,
2013-02-12 09:49:00,49.0,30.6,29.94,WSW,247,2.0,10.0,49,0.00,,,0.00,WUHU216DAVISVP2,2013-02-12 14:49:00,
2013-02-12 09:54:00,49.2,30.8,29.94,WNW,303,3.0,10.0,49,0.00,,,0.00,WUHU216DAVISVP2,2013-02-12 14:54:00,
2013-02-12 09:59:00,49.2,31.3,29.94,West,265,3.0,10.0,50,0.00,,,0.00,WUHU216DAVISVP2,2013-02-12 14:59:00,
2013-02-12 10:05:00,49.2,30.3,29.95,WNW,290,4.0,10.0,48,0.00,,,0.00,WUHU216DAVISVP2,2013-02-12 15:05:00,
2013-02-12 10:10:00,49.4,31.0,29.95,NW,318,4.0,10.0,49,0.00,,,0.00,WUHU216DAVISVP2,2013-02-12 15:10:00,
2013-02-12 10:15:00,49.6,30.1,29.96,West,268,6.0,10.0,47,0.00,,,0.00,WUHU216DAVISVP2,2013-02-12 15:15:00,
2013-02-12 10:20:00,49.5,30.6,29.96,NW,314,4.0,11.0,48,0.00,,,0.00,WUHU216DAVISVP2,2013-02-12 15:20:00,
2013-02-12 10:25:00,49.6,30.2,29.96,WNW,282,6.0,11.0,47,0.00,,,0.00,WUHU216DAVISVP2,2013-02-12 15:25:00,
2013-02-12 10:30:00,49.7,30.2,29.95,NNE,14,5.0,12.0,47,0.00,,,0.00,WUHU216DAVISVP2,2013-02-12 15:30:00,
2013-02-12 10:35:00,49.9,30.9,29.96,WNW,293,7.0,12.0,48,0.00,,,0.00,WUHU216DAVISVP2,2013-02-12 15:35:00,
2013-02-12 10:40:00,49.9,29.8,29.95,NNW,338,2.0,12.0,46,0.00,,,0.00,WUHU216DAVISVP2,2013-02-12 15:40:00,
2013-02-12 10:45:00,50.1,30.0,29.95,WNW,284,4.0,12.0,46,0.00,,,0.00,WUHU216DAVISVP2,2013-02-12 15:45:00,
2013-02-12 10:50:00,50.3,30.2,29.96,NW,314,3.0,11.0,46,0.00,,,0.00,WUHU216DAVISVP2,2013-02-12 15:50:00,
2013-02-12 10:56:00,50.3,30.2,29.96,NW,315,5.0,12.0,46,0.00,,,0.00,WUHU216DAVISVP2,2013-02-12 15:56:00,
2013-02-12 11:01:00,50.4,29.8,29.96,WNW,293,6.0,12.0,45,0.00,,,0.00,WUHU216DAVISVP2,2013-02-12 16:01:00,
2013-02-12 11:06:00,50.5,29.8,29.96,NW,322,6.0,12.0,45,0.00,,,0.00,WUHU216DAVISVP2,2013-02-12 16:06:00,
2013-02-12 11:11:00,50.7,30.0,29.96,NE,43,1.0,10.0,45,0.00,,,0.00,WUHU216DAVISVP2,2013-02-12 16:11:00,
2013-02-12 11:16:00,51.2,29.9,29.96,West,264,3.0,10.0,44,0.00,,,0.00,WUHU216DAVISVP2,2013-02-12 16:16:00,
2013-02-12 11:21:00,51.7,30.4,29.96,WSW,251,3.0,10.0,44,0.00,,,0.00,WUHU216DAVISVP2,2013-02-12 16:21:00,
2013-02-12 11:26:00,52.0,29.5,29.96,North,350,8.0,8.0,42,0.00,,,0.00,WUHU216DAVISVP2,2013-02-12 16:26:00,
2013-02-12 11:32:00,51.9,29.4,29.95,WNW,288,2.0,9.0,42,0.00,,,0.00,WUHU216DAVISVP2,2013-02-12 16:32:00,
2013-02-12 11:37:00,52.3,30.3,29.95,NW,326,3.0,9.0,43,0.00,,,0.00,WUHU216DAVISVP2,2013-02-12 16:37:00,
2013-02-12 11:42:00,51.9,29.4,29.95,WNW,300,2.0,11.0,42,0.00,,,0.00,WUHU216DAVISVP2,2013-02-12 16:42:00,
2013-02-12 11:47:00,51.9,28.8,29.95,West,279,10.0,11.0,41,0.00,,,0.00,WUHU216DAVISVP2,2013-02-12 16:47:00,
2013-02-12 11:52:00,52.0,30.1,29.95,NNW,331,5.0,11.0,43,0.00,,,0.00,WUHU216DAVISVP2,2013-02-12 16:52:00,
2013-02-12 11:57:00,51.9,28.8,29.95,WNW,282,5.0,11.0,41,0.00,,,0.00,WUHU216DAVISVP2,2013-02-12 16:57:00,
2013-02-12 12:02:00,52.0,30.6,29.94,NNW,343,5.0,12.0,44,0.00,,,0.00,WUHU216DAVISVP2,2013-02-12 17:02:00,
2013-02-12 12:07:00,52.1,28.9,29.94,NNW,330,7.0,14.0,41,0.00,,,0.00,WUHU216DAVISVP2,2013-02-12 17:07:00,
2013-02-12 12:12:00,52.0,29.5,29.94,NW,323,5.0,14.0,42,0.00,,,0.00,WUHU216DAVISVP2,2013-02-12 17:12:00,
2013-02-12 12:17:00,52.2,29.0,29.94,NNW,348,7.0,14.0,41,0.00,,,0.00,WUHU216DAVISVP2,2013-02-12 17:17:00,
2013-02-12 12:22:00,52.3,29.1,29.94,NNW,347,6.0,14.0,41,0.00,,,0.00,WUHU216DAVISVP2,2013-02-12 17:22:00,
2013-02-12 12:27:00,52.6,29.4,29.94,West,268,2.0,14.0,41,0.00,,,0.00,WUHU216DAVISVP2,2013-02-12 17:27:00,
2013-02-12 12:32:00,53.0,29.1,29.94,WNW,297,6.0,14.0,40,0.00,,,0.00,WUHU216DAVISVP2,2013-02-12 17:32:00,
2013-02-12 12:38:00,53.6,30.9,29.93,WSW,256,3.0,14.0,42,0.00,,,0.00,WUHU216DAVISVP2,2013-02-12 17:38:00,
2013-02-12 12:43:00,54.4,30.4,29.93,WNW,295,7.0,10.0,40,0.00,,,0.00,WUHU216DAVISVP2,2013-02-12 17:43:00,
2013-02-12 12:48:00,53.5,29.0,29.93,West,272,1.0,10.0,39,0.00,,,0.00,WUHU216DAVISVP2,2013-02-12 17:48:00,
2013-02-12 12:53:00,53.7,30.4,29.93,NW,316,5.0,10.0,41,0.00,,,0.00,WUHU216DAVISVP2,2013-02-12 17:53:00,
2013-02-12 12:58:00,53.9,29.9,29.93,North,4,5.0,15.0,40,0.00,,,0.00,WUHU216DAVISVP2,2013-02-12 17:58:00,
2013-02-12 13:03:00,53.5,29.6,29.93,West,281,1.0,15.0,40,0.00,,,0.00,WUHU216DAVISVP2,2013-02-12 18:03:00,
2013-02-12 13:10:00,53.5,29.6,29.93,West,272,7.0,15.0,40,0.00,,,0.00,WUHU216DAVISVP2,2013-02-12 18:10:00,
2013-02-12 13:15:00,53.4,29.5,29.92,NNW,348,3.0,15.0,40,0.00,,,0.00,WUHU216DAVISVP2,2013-02-12 18:15:00,
2013-02-12 13:20:00,53.6,29.7,29.92,NW,317,3.0,15.0,40,0.00,,,0.00,WUHU216DAVISVP2,2013-02-12 18:20:00,
2013-02-12 13:25:00,53.6,29.0,29.92,NNW,329,3.0,12.0,39,0.00,,,0.00,WUHU216DAVISVP2,2013-02-12 18:25:00,
2013-02-12 13:30:00,53.6,29.7,29.92,WNW,287,4.0,12.0,40,0.00,,,0.00,WUHU216DAVISVP2,2013-02-12 18:30:00,
2013-02-12 13:35:00,53.9,29.3,29.91,SW,228,7.0,10.0,39,0.00,,,0.00,WUHU216DAVISVP2,2013-02-12 18:35:00,
2013-02-12 13:40:00,54.3,30.3,29.91,NNW,345,3.0,9.0,40,0.00,,,0.00,WUHU216DAVISVP2,2013-02-12 18:40:00,
2013-02-12 13:46:00,54.4,29.8,29.91,North,10,4.0,8.0,39,0.00,,,0.00,WUHU216DAVISVP2,2013-02-12 18:46:00,
2013-02-12 13:51:00,54.4,29.1,29.90,West,262,3.0,10.0,38,0.00,,,0.00,WUHU216DAVISVP2,2013-02-12 18:51:00,
2013-02-12 13:56:00,54.5,29.9,29.91,NW,311,6.0,10.0,39,0.00,,,0.00,WUHU216DAVISVP2,2013-02-12 18:56:00,
2013-02-12 14:01:00,54.5,30.5,29.90,NNW,336,4.0,10.0,40,0.00,,,0.00,WUHU216DAVISVP2,2013-02-12 19:01:00,
2013-02-12 14:06:00,54.4,29.8,29.89,West,272,1.0,10.0,39,0.00,,,0.00,WUHU216DAVISVP2,2013-02-12 19:06:00,
2013-02-12 14:11:00,54.5,29.2,29.88,WNW,296,1.0,10.0,38,0.00,,,0.00,WUHU216DAVISVP2,2013-02-12 19:11:00,
2013-02-12 14:16:00,54.8,29.5,29.88,West,274,3.0,10.0,38,0.00,,,0.00,WUHU216DAVISVP2,2013-02-12 19:16:00,
2013-02-12 14:21:00,55.5,30.1,29.88,NW,326,0.0,6.0,38,0.00,,,0.00,WUHU216DAVISVP2,2013-02-12 19:21:00,
2013-02-12 14:26:00,55.7,30.9,29.88,WNW,285,4.0,6.0,39,0.00,,,0.00,WUHU216DAVISVP2,2013-02-12 19:26:00,
2013-02-12 14:31:00,55.6,29.5,29.88,North,359,3.0,6.0,37,0.00,,,0.00,WUHU216DAVISVP2,2013-02-12 19:31:00,
2013-02-12 14:36:00,55.3,29.9,29.87,North,11,1.0,7.0,38,0.00,,,0.00,WUHU216DAVISVP2,2013-02-12 19:36:00,
2013-02-12 14:41:00,55.6,30.2,29.86,NW,322,4.0,7.0,38,0.00,,,0.00,WUHU216DAVISVP2,2013-02-12 19:41:00,
2013-02-12 14:46:00,55.3,29.9,29.85,WNW,293,3.0,8.0,38,0.00,,,0.00,WUHU216DAVISVP2,2013-02-12 19:46:00,
2013-02-12 14:51:00,55.4,29.3,29.84,NNW,347,3.0,8.0,37,0.00,,,0.00,WUHU216DAVISVP2,2013-02-12 19:51:00,
2013-02-12 14:56:00,55.4,30.0,29.84,NNW,337,0.0,8.0,38,0.00,,,0.00,WUHU216DAVISVP2,2013-02-12 19:56:00,
2013-02-12 15:01:00,55.8,29.0,29.83,SW,222,3.0,8.0,36,0.00,,,0.00,WUHU216DAVISVP2,2013-02-12 20:01:00,
2013-02-12 15:06:00,55.6,30.2,29.82,NE,43,3.0,8.0,38,0.00,,,0.00,WUHU216DAVISVP2,2013-02-12 20:06:00,
2013-02-12 15:11:00,55.0,29.6,29.85,NNW,345,1.0,8.0,38,0.00,,,0.00,WUHU216DAVISVP2,2013-02-12 20:11:00,
2013-02-12 15:16:00,55.1,29.1,29.85,NE,45,0.0,8.0,37,0.00,,,0.00,WUHU216DAVISVP2,2013-02-12 20:16:00,
2013-02-12 15:21:00,55.2,29.8,29.86,NE,39,2.0,8.0,38,0.00,,,0.00,WUHU216DAVISVP2,2013-02-12 20:21:00,
2013-02-12 15:26:00,55.2,29.2,29.87,NW,324,1.0,5.0,37,0.00,,,0.00,WUHU216DAVISVP2,2013-02-12 20:26:00,
2013-02-12 15:31:00,55.9,29.8,29.87,SW,230,1.0,5.0,37,0.00,,,0.00,WUHU216DAVISVP2,2013-02-12 20:31:00,
2013-02-12 15:36:00,56.3,29.5,29.87,West,261,2.0,6.0,36,0.00,,,0.00,WUHU216DAVISVP2,2013-02-12 20:36:00,
2013-02-12 15:41:00,56.2,30.7,29.88,SW,218,3.0,6.0,38,0.00,,,0.00,WUHU216DAVISVP2,2013-02-12 20:41:00,
2013-02-12 15:46:00,56.8,30.6,29.89,WSW,241,1.0,6.0,37,0.00,,,0.00,WUHU216DAVISVP2,2013-02-12 20:46:00,
2013-02-12 15:51:00,57.2,30.9,29.89,SW,215,2.0,6.0,37,0.00,,,0.00,WUHU216DAVISVP2,2013-02-12 20:51:00,
2013-02-12 15:56:00,57.8,30.1,29.91,SSW,210,0.0,6.0,35,0.00,,,0.00,WUHU216DAVISVP2,2013-02-12 20:56:00,
2013-02-12 16:01:00,58.1,30.4,29.91,SW,220,2.0,6.0,35,0.00,,,0.00,WUHU216DAVISVP2,2013-02-12 21:01:00,
2013-02-12 16:06:00,58.1,29.6,29.91,WSW,255,4.0,9.0,34,0.00,,,0.00,WUHU216DAVISVP2,2013-02-12 21:06:00,
2013-02-12 16:11:00,57.7,30.0,29.90,WNW,303,2.0,9.0,35,0.00,,,0.00,WUHU216DAVISVP2,2013-02-12 21:11:00,
2013-02-12 16:16:00,57.7,30.0,29.90,South,191,1.0,9.0,35,0.00,,,0.00,WUHU216DAVISVP2,2013-02-12 21:16:00,
2013-02-12 16:22:00,57.8,30.1,29.90,SSE,159,4.0,9.0,35,0.00,,,0.00,WUHU216DAVISVP2,2013-02-12 21:22:00,
2013-02-12 16:27:00,57.5,29.1,29.91,SSW,207,3.0,8.0,34,0.00,,,0.00,WUHU216DAVISVP2,2013-02-12 21:27:00,
2013-02-12 16:32:00,57.1,28.8,29.91,South,191,0.0,8.0,34,0.00,,,0.00,WUHU216DAVISVP2,2013-02-12 21:32:00,
2013-02-12 16:37:00,56.8,30.6,29.90,SW,231,2.0,8.0,37,0.00,,,0.00,WUHU216DAVISVP2,2013-02-12 21:37:00,
2013-02-12 16:42:00,56.0,31.8,29.90,SSE,166,4.0,8.0,40,0.00,,,0.00,WUHU216DAVISVP2,2013-02-12 21:42:00,
2013-02-12 16:47:00,53.6,31.5,29.90,SSE,155,1.0,7.0,43,0.00,,,0.00,WUHU216DAVISVP2,2013-02-12 21:47:00,
2013-02-12 16:52:00,52.3,32.0,29.90,SE,133,0.0,7.0,46,0.00,,,0.00,WUHU216DAVISVP2,2013-02-12 21:52:00,
2013-02-12 16:57:00,51.4,31.8,29.89,SSW,195,0.0,7.0,47,0.00,,,0.00,WUHU216DAVISVP2,2013-02-12 21:57:00,
2013-02-12 17:02:00,50.6,33.1,29.89,East,80,1.0,6.0,51,0.00,,,0.00,WUHU216DAVISVP2,2013-02-12 22:02:00,
2013-02-12 17:07:00,49.7,34.7,29.89,NE,48,0.0,6.0,56,0.00,,,0.00,WUHU216DAVISVP2,2013-02-12 22:07:00,
2013-02-12 17:12:00,49.1,34.1,29.90,SSE,152,2.0,5.0,56,0.00,,,0.00,WUHU216DAVISVP2,2013-02-12 22:12:00,
2013-02-12 17:17:00,49.0,32.6,29.90,SE,137,0.0,5.0,53,0.00,,,0.00,WUHU216DAVISVP2,2013-02-12 22:17:00,
2013-02-12 17:23:00,49.1,31.7,29.91,SE,145,0.0,4.0,51,0.00,,,0.00,WUHU216DAVISVP2,2013-02-12 22:23:00,
2013-02-12 17:28:00,49.1,31.7,29.91,SE,145,0.0,4.0,51,0.00,,,0.00,WUHU216DAVISVP2,2013-02-12 22:28:00,
2013-02-12 17:33:00,49.0,33.6,29.91,SE,141,0.0,4.0,55,0.00,,,0.00,WUHU216DAVISVP2,2013-02-12 22:33:00,
2013-02-12 17:38:00,48.6,36.7,29.91,SE,141,0.0,3.0,63,0.00,,,0.00,WUHU216DAVISVP2,2013-02-12 22:38:00,
2013-02-12 17:43:00,47.8,35.9,29.91,ENE,75,1.0,3.0,63,0.00,,,0.00,WUHU216DAVISVP2,2013-02-12 22:43:00,
2013-02-12 17:48:00,46.9,35.1,29.92,ENE,75,0.0,3.0,63,0.00,,,0.00,WUHU216DAVISVP2,2013-02-12 22:48:00,
2013-02-12 17:53:00,46.5,33.9,29.92,ENE,75,1.0,3.0,61,0.00,,,0.00,WUHU216DAVISVP2,2013-02-12 22:53:00,
2013-02-12 17:58:00,46.3,33.7,29.92,ENE,75,0.0,3.0,61,0.00,,,0.00,WUHU216DAVISVP2,2013-02-12 22:58:00,
2013-02-12 18:03:00,46.1,33.5,29.92,ESE,117,1.0,3.0,61,0.00,,,0.00,WUHU216DAVISVP2,2013-02-12 23:03:00,
2013-02-12 18:08:00,46.0,33.4,29.93,ESE,117,0.0,3.0,61,0.00,,,0.00,WUHU216DAVISVP2,2013-02-12 23:08:00,
2013-02-12 18:13:00,46.0,33.4,29.93,NE,54,0.0,3.0,61,0.00,,,0.00,WUHU216DAVISVP2,2013-02-12 23:13:00,
2013-02-12 18:18:00,46.0,33.8,29.93,ENE,57,0.0,3.0,62,0.00,,,0.00,WUHU216DAVISVP2,2013-02-12 23:18:00,
2013-02-12 18:23:00,45.9,34.1,29.92,ENE,60,0.0,3.0,63,0.00,,,0.00,WUHU216DAVISVP2,2013-02-12 23:23:00,
2013-02-12 18:28:00,45.6,33.8,29.92,ENE,73,1.0,3.0,63,0.00,,,0.00,WUHU216DAVISVP2,2013-02-12 23:28:00,
2013-02-12 18:34:00,45.5,34.5,29.92,ENE,73,0.0,3.0,65,0.00,,,0.00,WUHU216DAVISVP2,2013-02-12 23:34:00,
2013-02-12 18:39:00,45.4,34.0,29.93,East,96,1.0,3.0,64,0.00,,,0.00,WUHU216DAVISVP2,2013-02-12 23:39:00,
2013-02-12 18:44:00,45.3,34.7,29.93,East,96,0.0,3.0,66,0.00,,,0.00,WUHU216DAVISVP2,2013-02-12 23:44:00,
2013-02-12 18:49:00,45.2,35.0,29.93,East,99,0.0,2.0,67,0.00,,,0.00,WUHU216DAVISVP2,2013-02-12 23:49:00,
2013-02-12 18:54:00,45.0,34.8,29.94,East,99,0.0,2.0,67,0.00,,,0.00,WUHU216DAVISVP2,2013-02-12 23:54:00,
2013-02-12 18:59:00,44.8,34.6,29.94,East,98,1.0,2.0,67,0.00,,,0.00,WUHU216DAVISVP2,2013-02-12 23:59:00,
2013-02-12 19:04:00,44.6,34.4,29.94,East,99,0.0,2.0,67,0.00,,,0.00,WUHU216DAVISVP2,2013-02-13 00:04:00,
2013-02-12 19:09:00,44.3,34.5,29.93,East,87,0.0,3.0,68,0.00,,,0.00,WUHU216DAVISVP2,2013-02-13 00:09:00,
2013-02-12 19:14:00,44.3,34.1,29.93,East,87,1.0,3.0,67,0.00,,,0.00,WUHU216DAVISVP2,2013-02-13 00:14:00,
2013-02-12 19:19:00,44.3,34.1,29.93,East,87,0.0,3.0,67,0.00,,,0.00,WUHU216DAVISVP2,2013-02-13 00:19:00,
2013-02-12 19:24:00,44.2,34.0,29.93,East,87,0.0,3.0,67,0.00,,,0.00,WUHU216DAVISVP2,2013-02-13 00:24:00,
2013-02-12 19:29:00,44.3,34.1,29.93,ESE,107,0.0,2.0,67,0.00,,,0.00,WUHU216DAVISVP2,2013-02-13 00:29:00,
2013-02-12 19:34:00,44.3,34.1,29.93,ESE,107,0.0,2.0,67,0.00,,,0.00,WUHU216DAVISVP2,2013-02-13 00:34:00,
2013-02-12 19:39:00,44.5,33.9,29.92,ESE,107,0.0,2.0,66,0.00,,,0.00,WUHU216DAVISVP2,2013-02-13 00:39:00,
2013-02-12 19:44:00,44.6,34.0,29.92,ESE,107,0.0,2.0,66,0.00,,,0.00,WUHU216DAVISVP2,2013-02-13 00:44:00,
2013-02-12 19:49:00,44.6,34.3,29.91,ESE,107,0.0,2.0,67,0.00,,,0.00,WUHU216DAVISVP2,2013-02-13 00:49:00,
2013-02-12 19:54:00,44.5,35.0,29.92,ESE,107,0.0,2.0,69,0.00,,,0.00,WUHU216DAVISVP2,2013-02-13 00:54:00,
2013-02-12 19:59:00,44.2,35.0,29.92,ESE,107,0.0,2.0,70,0.00,,,0.00,WUHU216DAVISVP2,2013-02-13 00:59:00,
2013-02-12 20:04:00,43.9,34.7,29.91,ESE,107,0.0,2.0,70,0.00,,,0.00,WUHU216DAVISVP2,2013-02-13 01:04:00,
2013-02-12 20:09:00,43.8,34.0,29.91,ESE,107,0.0,2.0,68,0.00,,,0.00,WUHU216DAVISVP2,2013-02-13 01:09:00,
2013-02-12 20:15:00,43.7,33.6,29.92,ESE,107,0.0,1.0,67,0.00,,,0.00,WUHU216DAVISVP2,2013-02-13 01:15:00,
2013-02-12 20:20:00,43.8,34.4,29.91,ESE,107,0.0,0.0,69,0.00,,,0.00,WUHU216DAVISVP2,2013-02-13 01:20:00,
2013-02-12 20:25:00,43.5,35.1,29.91,ESE,107,0.0,1.0,72,0.00,,,0.00,WUHU216DAVISVP2,2013-02-13 01:25:00,
2013-02-12 20:30:00,43.1,35.8,29.92,NNE,27,5.0,5.0,75,0.00,,,0.00,WUHU216DAVISVP2,2013-02-13 01:30:00,
2013-02-12 20:35:00,43.2,32.7,29.91,NE,42,2.0,6.0,66,0.00,,,0.00,WUHU216DAVISVP2,2013-02-13 01:35:00,
2013-02-12 20:40:00,43.8,32.5,29.91,NE,38,3.0,6.0,64,0.00,,,0.00,WUHU216DAVISVP2,2013-02-13 01:40:00,
2013-02-12 20:45:00,44.0,32.3,29.91,NE,38,2.0,7.0,63,0.00,,,0.00,WUHU216DAVISVP2,2013-02-13 01:45:00,
2013-02-12 20:50:00,44.0,31.9,29.91,NNE,17,6.0,7.0,62,0.00,,,0.00,WUHU216DAVISVP2,2013-02-13 01:50:00,
2013-02-12 20:55:00,43.9,31.8,29.91,NNE,33,4.0,7.0,62,0.00,,,0.00,WUHU216DAVISVP2,2013-02-13 01:55:00,
2013-02-12 21:00:00,43.8,31.7,29.91,NE,44,3.0,7.0,62,0.00,,,0.00,WUHU216DAVISVP2,2013-02-13 02:00:00,
2013-02-12 21:05:00,43.7,31.6,29.91,NNE,31,1.0,7.0,62,0.00,,,0.00,WUHU216DAVISVP2,2013-02-13 02:05:00,
2013-02-12 21:10:00,43.6,31.5,29.91,ENE,70,2.0,7.0,62,0.00,,,0.00,WUHU216DAVISVP2,2013-02-13 02:10:00,
2013-02-12 21:15:00,43.5,31.4,29.91,NE,49,3.0,7.0,62,0.00,,,0.00,WUHU216DAVISVP2,2013-02-13 02:15:00,
2013-02-12 21:20:00,43.4,31.3,29.91,ENE,67,7.0,7.0,62,0.00,,,0.00,WUHU216DAVISVP2,2013-02-13 02:20:00,
2013-02-12 21:26:00,43.3,31.2,29.92,NNE,19,1.0,7.0,62,0.00,,,0.00,WUHU216DAVISVP2,2013-02-13 02:26:00,
2013-02-12 21:31:00,43.2,31.5,29.92,NNE,33,0.0,7.0,63,0.00,,,0.00,WUHU216DAVISVP2,2013-02-13 02:31:00,
2013-02-12 21:36:00,43.0,31.3,29.92,NE,35,4.0,7.0,63,0.00,,,0.00,WUHU216DAVISVP2,2013-02-13 02:36:00,
2013-02-12 21:41:00,42.8,31.2,29.92,NNE,19,0.0,6.0,63,0.00,,,0.00,WUHU216DAVISVP2,2013-02-13 02:41:00,
2013-02-12 21:46:00,42.7,31.5,29.92,NE,40,1.0,4.0,64,0.00,,,0.00,WUHU216DAVISVP2,2013-02-13 02:46:00,
2013-02-12 21:51:00,42.5,31.3,29.92,NE,51,0.0,4.0,64,0.00,,,0.00,WUHU216DAVISVP2,2013-02-13 02:51:00,
2013-02-12 21:56:00,42.3,31.1,29.93,ENE,73,0.0,3.0,64,0.00,,,0.00,WUHU216DAVISVP2,2013-02-13 02:56:00,
2013-02-12 22:01:00,42.2,31.4,29.92,ENE,73,0.0,3.0,65,0.00,,,0.00,WUHU216DAVISVP2,2013-02-13 03:01:00,
2013-02-12 22:06:00,42.2,31.7,29.93,ENE,73,0.0,3.0,66,0.00,,,0.00,WUHU216DAVISVP2,2013-02-13 03:06:00,
2013-02-12 22:11:00,42.0,31.5,29.94,ENE,73,0.0,3.0,66,0.00,,,0.00,WUHU216DAVISVP2,2013-02-13 03:11:00,
2013-02-12 22:17:00,41.9,31.8,29.94,ENE,73,0.0,2.0,67,0.00,,,0.00,WUHU216DAVISVP2,2013-02-13 03:17:00,
2013-02-12 22:22:00,41.7,31.6,29.94,ENE,73,0.0,1.0,67,0.00,,,0.00,WUHU216DAVISVP2,2013-02-13 03:22:00,
2013-02-12 22:27:00,41.6,31.9,29.93,ENE,73,0.0,1.0,68,0.00,,,0.00,WUHU216DAVISVP2,2013-02-13 03:27:00,
2013-02-12 22:32:00,41.5,32.1,29.93,ENE,73,0.0,1.0,69,0.00,,,0.00,WUHU216DAVISVP2,2013-02-13 03:32:00,
2013-02-12 22:38:00,41.4,32.3,29.93,ENE,73,2.0,2.0,70,0.00,,,0.00,WUHU216DAVISVP2,2013-02-13 03:38:00,
2013-02-12 22:43:00,41.3,32.2,29.93,ENE,73,0.0,2.0,70,0.00,,,0.00,WUHU216DAVISVP2,2013-02-13 03:43:00,
2013-02-12 22:48:00,41.2,32.6,29.92,ENE,73,0.0,2.0,71,0.00,,,0.00,WUHU216DAVISVP2,2013-02-13 03:48:00,
2013-02-12 22:53:00,41.0,32.4,29.92,ENE,73,0.0,2.0,71,0.00,,,0.00,WUHU216DAVISVP2,2013-02-13 03:53:00,
2013-02-12 22:58:00,40.8,32.2,29.92,ENE,73,0.0,0.0,71,0.00,,,0.00,WUHU216DAVISVP2,2013-02-13 03:58:00,
2013-02-12 23:03:00,40.6,32.0,29.93,ENE,73,0.0,0.0,71,0.00,,,0.00,WUHU216DAVISVP2,2013-02-13 04:03:00,
2013-02-12 23:10:00,40.6,32.7,29.92,ENE,73,0.0,0.0,73,0.00,,,0.00,WUHU216DAVISVP2,2013-02-13 04:10:00,
2013-02-12 23:15:00,40.7,33.1,29.92,ENE,73,0.0,1.0,74,0.00,,,0.00,WUHU216DAVISVP2,2013-02-13 04:15:00,
2013-02-12 23:20:00,40.5,33.5,29.92,ENE,73,0.0,2.0,76,0.00,,,0.00,WUHU216DAVISVP2,2013-02-13 04:20:00,
2013-02-12 23:25:00,40.2,33.2,29.92,NE,45,0.0,2.0,76,0.00,,,0.00,WUHU216DAVISVP2,2013-02-13 04:25:00,
2013-02-12 23:30:00,39.8,32.8,29.91,North,8,1.0,2.0,76,0.00,,,0.00,WUHU216DAVISVP2,2013-02-13 04:30:00,
2013-02-12 23:35:00,39.8,32.6,29.92,North,11,1.0,2.0,75,0.00,,,0.00,WUHU216DAVISVP2,2013-02-13 04:35:00,
2013-02-12 23:40:00,39.7,31.8,29.93,North,11,1.0,3.0,73,0.00,,,0.00,WUHU216DAVISVP2,2013-02-13 04:40:00,
2013-02-12 23:45:00,39.7,32.2,29.92,NNE,12,2.0,3.0,74,0.00,,,0.00,WUHU216DAVISVP2,2013-02-13 04:45:00,
2013-02-12 23:51:00,39.7,31.5,29.93,NNE,27,2.0,4.0,72,0.00,,,0.00,WUHU216DAVISVP2,2013-02-13 04:51:00,
2013-02-12 23:56:00,39.8,31.6,29.93,NNE,16,1.0,4.0,72,0.00,,,0.00,WUHU216DAVISVP2,2013-02-13 04:56:00,